עמוד ראשי
METAR-TAF:

METAR-TAF

שדות תעופה :

Deering, אלסקה, ארצות הברית

קו רוחב: 66-05N, קו אורך: 162-45W, גובה: 5מטר

תצפית מזג אוויר נוכחית

הדו"ח נערך לפני 1 שעות ו 15דקות, בשעה 15:53 UTC
רוח 3קשר מכיוון צפון-מערב
טמפרטורת 6 צלסיוס
לחות 75%
לחץ 1025 hPa
ראות: 16.1קילומטר
עננים פזורים בגובה 12000רגל

METAR: PADE 151553Z AUTO 32003KT 10SM SCT120 06/02 A3028 RMK AO2 SLP253 T00560022 TSNO

זמן: 09:08 (17:08 UTC)


TAF: חסר

תצפיות ותחזיות מזג אוויר לגבי יותר מ- 4,000 שדות תעופה ברחבי העולם. דוחות METAR ו- TAF.

התחנות הזמינות מסומנות בנקודות צהובות ואדומות על גבי המפה.

העבר את העכבר לנקודה הצבעונית על מנת לראות את שם התחנה.

לאחר מכן, לחץ כדי לראות את תוכן ואת תחזיות מזג האוויר.

כדי לשנות את המפה: לחץ על הכפתורים הירוקים עם הפלוס השחור כדי להתקרב; על הכפתור הירוק עם המקף כדי להתרחק; או בחיצים הירוקים למפות סמוכות.


METAR-TAF: